createdAt,value
2022-09-10T00:01:49.127Z,100535.91
2022-09-10T00:04:48.155Z,100537.09
2022-09-10T00:07:16.166Z,100535.91
2022-09-10T00:09:42.452Z,100544.97
2022-09-10T00:12:08.735Z,100548.91
2022-09-10T00:14:35.684Z,100556.38
2022-09-10T00:17:02.033Z,100552.38
2022-09-10T00:19:30.065Z,100552.38
2022-09-10T00:21:56.357Z,100548.81
2022-09-10T00:24:22.720Z,100543.28
2022-09-10T00:26:49.057Z,100547.19
2022-09-10T00:29:18.279Z,100544.03
2022-09-10T00:31:44.930Z,100542.06
2022-09-10T00:34:12.376Z,100542.81
2022-09-10T00:36:40.261Z,100540.44
2022-09-10T00:39:13.734Z,100538.47
2022-09-10T00:41:40.766Z,100535.66
2022-09-10T00:44:27.050Z,100536.38
2022-09-10T00:46:53.827Z,100540.31
2022-09-10T00:49:23.967Z,100537.56
2022-09-10T00:51:52.526Z,100540.69
2022-09-10T00:54:21.036Z,100547.41
2022-09-10T00:56:47.981Z,100550.53
2022-09-10T00:59:16.465Z,100543.00
2022-09-10T01:01:43.146Z,100540.63
2022-09-10T01:04:10.617Z,100549.97
2022-09-10T01:06:38.861Z,100554.38
2022-09-10T01:09:06.162Z,100548.88
2022-09-10T01:12:08.040Z,100544.91
2022-09-10T01:14:40.105Z,100540.59
2022-09-10T01:17:19.431Z,100534.22
2022-09-10T01:20:04.649Z,100526.34
2022-09-10T01:22:31.878Z,100535.47
2022-09-10T01:25:04.807Z,100539.41
2022-09-10T01:27:31.090Z,100535.53
2022-09-10T01:30:15.202Z,100541.88
2022-09-10T01:32:44.302Z,100540.56
2022-09-10T01:35:22.785Z,100546.13
2022-09-10T01:37:56.794Z,100538.63
2022-09-10T01:40:29.706Z,100541.78
2022-09-10T01:43:00.583Z,100530.75
2022-09-10T01:45:28.674Z,100539.03
2022-09-10T01:47:57.841Z,100533.91
2022-09-10T01:50:24.175Z,100536.69
2022-09-10T01:52:53.562Z,100539.03
2022-09-10T01:55:26.745Z,100541.78
2022-09-10T01:58:04.259Z,100546.91
2022-09-10T02:00:33.356Z,100540.97
2022-09-10T02:03:04.257Z,100538.94
2022-09-10T02:05:31.480Z,100549.13
2022-09-10T02:08:00.396Z,100551.56
2022-09-10T02:10:26.707Z,100544.88
2022-09-10T02:12:53.365Z,100560.25
2022-09-10T02:15:22.305Z,100555.16
2022-09-10T02:17:49.231Z,100555.91
2022-09-10T02:20:16.007Z,100553.91
2022-09-10T02:22:44.718Z,100557.06
2022-09-10T02:25:11.144Z,100555.91
2022-09-10T02:27:38.263Z,100560.22
2022-09-10T02:30:05.965Z,100557.44
2022-09-10T02:32:32.293Z,100559.41
2022-09-10T02:34:58.651Z,100554.66
2022-09-10T02:37:25.077Z,100564.47
2022-09-10T02:39:51.424Z,100562.88
2022-09-10T02:42:17.992Z,100571.16
2022-09-10T02:44:44.975Z,100559.31
2022-09-10T02:47:11.273Z,100572.69
2022-09-10T02:49:37.547Z,100572.69
2022-09-10T02:52:04.550Z,100565.56
2022-09-10T02:54:30.841Z,100571.47
2022-09-10T02:56:57.124Z,100570.66
2022-09-10T02:59:24.199Z,100574.06
2022-09-10T03:01:50.678Z,100576.88
2022-09-10T03:04:17.420Z,100581.63
2022-09-10T03:06:43.767Z,100580.41
2022-09-10T03:09:10.975Z,100579.63
2022-09-10T03:11:40.517Z,100573.25
2022-09-10T03:14:08.304Z,100574.44
2022-09-10T03:16:34.665Z,100573.25
2022-09-10T03:19:00.966Z,100570.06
2022-09-10T03:21:27.399Z,100571.16
2022-09-10T03:23:53.969Z,100562.56
2022-09-10T03:26:20.956Z,100574.34
2022-09-10T03:28:47.849Z,100573.19
2022-09-10T03:31:14.257Z,100569.59
2022-09-10T03:33:43.583Z,100567.25
2022-09-10T03:36:13.169Z,100575.53
2022-09-10T03:38:40.129Z,100568.03
2022-09-10T03:41:06.734Z,100570.81
2022-09-10T03:43:33.096Z,100564.94
2022-09-10T03:45:59.715Z,100560.19
2022-09-10T03:48:26.065Z,100572.34
2022-09-10T03:50:52.367Z,100560.56
2022-09-10T03:53:19.343Z,100563.28
2022-09-10T03:55:47.186Z,100562.50
2022-09-10T03:58:14.058Z,100565.34
2022-09-10T04:00:40.406Z,100568.06
2022-09-10T04:03:06.785Z,100556.94
2022-09-10T04:05:33.161Z,100564.09
2022-09-10T04:07:59.799Z,100559.75
2022-09-10T04:10:26.830Z,100567.22
2022-09-10T04:12:53.496Z,100567.97
2022-09-10T04:15:20.348Z,100568.41
2022-09-10T04:17:47.158Z,100564.09
2022-09-10T04:20:13.447Z,100564.50
2022-09-10T04:22:39.724Z,100566.78
2022-09-10T04:25:06.203Z,100563.25
2022-09-10T04:27:32.506Z,100560.88
2022-09-10T04:29:58.848Z,100563.97
2022-09-10T04:32:25.129Z,100563.66
2022-09-10T04:34:51.529Z,100564.47
2022-09-10T04:37:19.576Z,100567.16
2022-09-10T04:39:46.068Z,100568.34
2022-09-10T04:42:15.348Z,100558.91
2022-09-10T04:44:41.617Z,100565.22
2022-09-10T04:47:07.899Z,100566.75
2022-09-10T04:49:34.253Z,100577.41
2022-09-10T04:52:00.594Z,100560.47
2022-09-10T04:54:26.928Z,100571.50
2022-09-10T04:56:53.336Z,100573.81
2022-09-10T04:59:20.415Z,100571.34
2022-09-10T05:01:50.209Z,100570.59
2022-09-10T05:04:16.888Z,100571.81
2022-09-10T05:06:43.164Z,100573.78
2022-09-10T05:09:09.481Z,100576.47
2022-09-10T05:11:36.696Z,100566.28
2022-09-10T05:14:03.035Z,100563.19
2022-09-10T05:16:29.344Z,100565.88
2022-09-10T05:18:56.174Z,100561.97
2022-09-10T05:21:22.590Z,100555.63
2022-09-10T05:23:48.948Z,100557.91
2022-09-10T05:26:15.278Z,100558.44
2022-09-10T05:28:42.584Z,100554.28
2022-09-10T05:31:09.700Z,100566.66
2022-09-10T05:33:36.375Z,100565.09
2022-09-10T05:36:02.836Z,100564.84
2022-09-10T05:38:29.833Z,100554.50
2022-09-10T05:40:57.020Z,100556.16
2022-09-10T05:43:23.314Z,100548.94
2022-09-10T05:45:51.882Z,100555.72
2022-09-10T05:48:18.234Z,100562.03
2022-09-10T05:50:47.730Z,100552.25
2022-09-10T05:53:14.010Z,100553.44
2022-09-10T05:55:40.369Z,100555.22
2022-09-10T05:58:06.678Z,100560.00
2022-09-10T06:00:33.609Z,100555.22
2022-09-10T06:03:00.407Z,100558.84
2022-09-10T06:05:26.871Z,100558.22
2022-09-10T06:07:53.188Z,100553.56
2022-09-10T06:10:19.986Z,100559.63
2022-09-10T06:12:47.096Z,100569.72
2022-09-10T06:15:13.555Z,100563.31
2022-09-10T06:17:40.154Z,100557.09
2022-09-10T06:20:06.574Z,100557.00
2022-09-10T06:22:33.158Z,100563.50
2022-09-10T06:24:59.497Z,100566.13
2022-09-10T06:27:26.458Z,100566.03
2022-09-10T06:29:52.755Z,100570.50
2022-09-10T06:32:19.112Z,100564.78
2022-09-10T06:34:45.408Z,100567.78
2022-09-10T06:37:11.723Z,100560.66
2022-09-10T06:39:38.149Z,100559.13
2022-09-10T06:42:04.579Z,100561.22
2022-09-10T06:44:30.865Z,100561.25
2022-09-10T06:47:42.737Z,100558.34
2022-09-10T06:49:43.510Z,100555.53
2022-09-10T06:52:11.492Z,100550.06
2022-09-10T06:54:37.795Z,100559.78
2022-09-10T06:57:04.996Z,100553.47
2022-09-10T06:59:34.979Z,100550.59
2022-09-10T07:02:02.288Z,100559.03
2022-09-10T07:04:28.630Z,100557.16
2022-09-10T07:06:55.114Z,100556.03
2022-09-10T07:09:21.402Z,100559.03
2022-09-10T07:11:47.697Z,100561.38
2022-09-10T07:14:14.155Z,100560.13
2022-09-10T07:16:41.508Z,100559.63
2022-09-10T07:19:07.850Z,100565.41
2022-09-10T07:21:37.751Z,100563.09
2022-09-10T07:24:05.738Z,100572.19
2022-09-10T07:26:32.055Z,100561.97
2022-09-10T07:28:58.881Z,100570.44
2022-09-10T07:31:27.161Z,100564.03
2022-09-10T07:33:54.729Z,100572.88
2022-09-10T07:36:21.499Z,100574.03
2022-09-10T07:38:51.160Z,100571.00
2022-09-10T07:41:17.521Z,100569.06
2022-09-10T07:43:44.270Z,100572.66
2022-09-10T07:46:12.457Z,100573.47
2022-09-10T07:48:39.691Z,100568.38
2022-09-10T07:51:07.966Z,100564.09
2022-09-10T07:53:34.614Z,100580.69
2022-09-10T07:56:02.051Z,100574.78
2022-09-10T07:58:31.959Z,100574.84
2022-09-10T08:00:59.693Z,100573.28
2022-09-10T08:03:26.998Z,100578.81
2022-09-10T08:05:54.015Z,100583.94
2022-09-10T08:08:20.446Z,100575.66
2022-09-10T08:10:47.007Z,100579.66
2022-09-10T08:13:13.309Z,100578.91
2022-09-10T08:15:44.085Z,100583.25
2022-09-10T08:18:11.382Z,100584.88
2022-09-10T08:20:40.034Z,100584.47
2022-09-10T08:23:06.942Z,100585.25
2022-09-10T08:25:33.554Z,100589.59
2022-09-10T08:28:00.744Z,100591.19
2022-09-10T08:30:27.115Z,100588.78
2022-09-10T08:32:53.404Z,100591.59
2022-09-10T08:35:20.858Z,100595.94
2022-09-10T08:37:47.799Z,100598.75
2022-09-10T08:40:14.511Z,100596.34
2022-09-10T08:42:45.846Z,100607.03
2022-09-10T08:45:14.776Z,100608.22
2022-09-10T08:47:41.039Z,100603.88
2022-09-10T08:50:26.126Z,100605.84
2022-09-10T08:52:59.295Z,100609.78
2022-09-10T08:55:30.458Z,100613.38
2022-09-10T08:58:11.244Z,100622.06
2022-09-10T09:00:39.070Z,100613.78
2022-09-10T09:03:11.440Z,100615.38
2022-09-10T09:05:58.036Z,100622.88
2022-09-10T09:08:25.789Z,100621.75
2022-09-10T09:11:11.090Z,100618.56
2022-09-10T09:13:43.884Z,100618.16
2022-09-10T09:16:20.349Z,100623.72
2022-09-10T09:18:46.621Z,100611.81
2022-09-10T09:21:17.102Z,100613.78
2022-09-10T09:24:12.766Z,100613.75
2022-09-10T09:26:41.872Z,100619.69
2022-09-10T09:29:28.693Z,100618.50
2022-09-10T09:31:59.597Z,100617.34
2022-09-10T09:34:33.220Z,100621.22
2022-09-10T09:37:03.226Z,100625.16
2022-09-10T09:39:53.352Z,100619.63
2022-09-10T09:42:22.893Z,100622.00
2022-09-10T09:45:04.331Z,100619.63
2022-09-10T09:47:30.713Z,100621.19
2022-09-10T09:49:59.420Z,100618.41
2022-09-10T09:52:26.640Z,100621.13
2022-09-10T09:55:13.887Z,100621.13
2022-09-10T09:57:42.854Z,100619.56
2022-09-10T10:00:47.818Z,100623.47
2022-09-10T10:03:16.298Z,100621.91
2022-09-10T10:05:42.899Z,100609.19
2022-09-10T10:08:41.774Z,100610.75
2022-09-10T10:11:08.566Z,100612.44
2022-09-10T10:13:37.194Z,100614.34
2022-09-10T10:16:16.643Z,100614.03
2022-09-10T10:18:43.769Z,100619.94
2022-09-10T10:21:15.141Z,100619.88
2022-09-10T10:23:41.607Z,100619.88
2022-09-10T10:26:24.758Z,100626.25
2022-09-10T10:28:53.752Z,100624.69
2022-09-10T10:31:20.539Z,100621.50
2022-09-10T10:33:49.872Z,100616.84
2022-09-10T10:36:26.183Z,100624.34
2022-09-10T10:38:57.967Z,100623.84
2022-09-10T10:41:33.544Z,100624.56
2022-09-10T10:44:24.188Z,100626.59
2022-09-10T10:47:13.599Z,100626.56
2022-09-10T10:50:00.004Z,100633.34
2022-09-10T10:52:26.309Z,100630.97
2022-09-10T10:55:04.539Z,100638.06
2022-09-10T10:57:49.733Z,100641.13
2022-09-10T11:00:17.629Z,100642.34
2022-09-10T11:02:59.401Z,100642.28
2022-09-10T11:05:34.704Z,100638.81
2022-09-10T11:08:08.462Z,100641.59
2022-09-10T11:10:39.486Z,100640.75
2022-09-10T11:13:25.605Z,100639.50
2022-09-10T11:15:52.526Z,100642.63
2022-09-10T11:18:18.879Z,100641.41
2022-09-10T11:20:51.059Z,100644.56
2022-09-10T11:23:36.335Z,100644.53
2022-09-10T11:26:07.911Z,100650.84
2022-09-10T11:29:01.477Z,100645.25
2022-09-10T11:31:29.439Z,100647.63
2022-09-10T11:33:59.692Z,100657.50
2022-09-10T11:36:44.331Z,100650.38
2022-09-10T11:39:20.504Z,100662.22
2022-09-10T11:41:48.515Z,100662.22
2022-09-10T11:44:36.477Z,100665.78
2022-09-10T11:47:03.113Z,100663.03
2022-09-10T11:49:29.422Z,100663.38
2022-09-10T11:51:56.886Z,100659.41
2022-09-10T11:54:27.700Z,100658.66
2022-09-10T11:56:54.027Z,100665.38
2022-09-10T11:59:23.165Z,100659.09
2022-09-10T12:02:02.770Z,100663.03
2022-09-10T12:04:33.477Z,100654.78
2022-09-10T12:07:08.159Z,100652.44
2022-09-10T12:09:53.167Z,100647.34
2022-09-10T12:12:26.493Z,100655.63
2022-09-10T12:14:53.900Z,100657.16
2022-09-10T12:17:27.257Z,100656.78
2022-09-10T12:19:55.644Z,100655.22
2022-09-10T12:22:21.932Z,100654.78
2022-09-10T12:25:08.583Z,100649.25
2022-09-10T12:27:45.912Z,100642.06
2022-09-10T12:30:24.441Z,100641.25
2022-09-10T12:32:52.846Z,100637.63
2022-09-10T12:35:31.384Z,100641.38
2022-09-10T12:38:17.313Z,100638.66
2022-09-10T12:40:44.768Z,100646.88
2022-09-10T12:43:29.724Z,100634.22
2022-09-10T12:46:16.437Z,100637.66
2022-09-10T12:48:44.895Z,100629.00
2022-09-10T12:51:17.012Z,100628.59
2022-09-10T12:53:50.507Z,100628.69
2022-09-10T12:56:35.360Z,100615.69
2022-09-10T12:59:17.288Z,100623.28
2022-09-10T13:01:46.372Z,100618.44
2022-09-10T13:04:29.951Z,100629.84
2022-09-10T13:07:01.403Z,100630.22
2022-09-10T13:09:36.391Z,100621.47
2022-09-10T13:12:05.856Z,100630.94
2022-09-10T13:14:45.494Z,100628.53
2022-09-10T13:17:30.420Z,100624.13
2022-09-10T13:20:12.170Z,100629.66
2022-09-10T13:22:58.358Z,100617.34
2022-09-10T13:25:32.193Z,100610.53
2022-09-10T13:27:58.714Z,100613.69
2022-09-10T13:30:25.473Z,100612.91
2022-09-10T13:32:55.151Z,100599.66
2022-09-10T13:35:41.319Z,100607.16
2022-09-10T13:38:19.921Z,100605.53
2022-09-10T13:40:56.715Z,100597.22
2022-09-10T13:43:25.827Z,100600.34
2022-09-10T13:45:55.135Z,100603.53
2022-09-10T13:48:21.481Z,100601.56
2022-09-10T13:50:47.816Z,100615.38
2022-09-10T13:53:15.917Z,100613.75
2022-09-10T13:55:50.393Z,100614.19
2022-09-10T13:58:18.333Z,100610.66
2022-09-10T14:00:53.203Z,100612.63
2022-09-10T14:03:21.493Z,100618.19
2022-09-10T14:05:52.940Z,100618.28
2022-09-10T14:08:22.145Z,100614.41
2022-09-10T14:10:50.418Z,100614.06
2022-09-10T14:13:20.108Z,100616.47
2022-09-10T14:15:47.068Z,100612.13
2022-09-10T14:18:13.853Z,100612.59
2022-09-10T14:20:40.487Z,100607.88
2022-09-10T14:23:12.402Z,100600.38
2022-09-10T14:25:39.917Z,100600.81
2022-09-10T14:28:15.360Z,100595.25
2022-09-10T14:30:42.416Z,100600.06
2022-09-10T14:33:27.619Z,100605.63
2022-09-10T14:35:54.202Z,100602.91
2022-09-10T14:38:30.826Z,100593.03
2022-09-10T14:41:03.336Z,100590.28
2022-09-10T14:43:33.687Z,100595.06
2022-09-10T14:46:03.954Z,100591.53
2022-09-10T14:48:38.443Z,100594.31
2022-09-10T14:51:12.101Z,100591.56
2022-09-10T14:53:39.443Z,100586.00
2022-09-10T14:56:09.888Z,100593.47
2022-09-10T14:58:36.210Z,100588.72
2022-09-10T15:01:03.346Z,100597.00
2022-09-10T15:03:29.633Z,100593.06
2022-09-10T15:05:55.941Z,100582.38
2022-09-10T15:08:22.304Z,100581.16
2022-09-10T15:10:49.454Z,100578.75
2022-09-10T15:13:18.826Z,100576.75
2022-09-10T15:15:48.336Z,100584.25
2022-09-10T15:18:14.857Z,100579.50
2022-09-10T15:20:41.406Z,100586.19
2022-09-10T15:23:07.745Z,100592.13
2022-09-10T15:25:40.470Z,100599.63
2022-09-10T15:28:09.608Z,100603.53
2022-09-10T15:30:36.779Z,100602.72
2022-09-10T15:33:06.284Z,100608.25
2022-09-10T15:35:32.841Z,100601.50
2022-09-10T15:38:01.592Z,100607.13
2022-09-10T15:40:27.912Z,100610.66
2022-09-10T15:42:54.285Z,100618.22
2022-09-10T15:45:20.572Z,100613.88
2022-09-10T15:47:46.923Z,100615.47
2022-09-10T15:50:15.596Z,100606.00
2022-09-10T15:52:41.930Z,100606.81
2022-09-10T15:55:08.473Z,100605.25
2022-09-10T15:57:35.894Z,100607.25
2022-09-10T16:00:06.572Z,100605.28
2022-09-10T16:02:33.611Z,100610.84
2022-09-10T16:05:02.848Z,100612.06
2022-09-10T16:07:29.496Z,100600.97
2022-09-10T16:09:55.859Z,100608.47
2022-09-10T16:12:22.178Z,100599.00
2022-09-10T16:14:48.484Z,100604.53
2022-09-10T16:17:15.243Z,100610.84
2022-09-10T16:19:41.590Z,100605.75
2022-09-10T16:22:08.119Z,100601.03
2022-09-10T16:24:34.456Z,100611.28
2022-09-10T16:27:00.787Z,100619.25
2022-09-10T16:29:28.510Z,100623.19
2022-09-10T16:31:56.392Z,100621.22
2022-09-10T16:34:22.700Z,100618.91
2022-09-10T16:36:49.435Z,100630.34
2022-09-10T16:39:16.275Z,100628.00
2022-09-10T16:41:43.748Z,100636.28
2022-09-10T16:44:11.206Z,100636.69
2022-09-10T16:46:38.422Z,100624.84
2022-09-10T16:49:05.821Z,100634.34
2022-09-10T16:51:34.427Z,100628.41
2022-09-10T16:54:02.413Z,100631.59
2022-09-10T16:56:49.134Z,100629.25
2022-09-10T16:59:22.639Z,100631.59
2022-09-10T17:01:49.720Z,100633.50
2022-09-10T17:04:20.668Z,100638.25
2022-09-10T17:06:48.778Z,100634.66
2022-09-10T17:09:15.445Z,100640.22
2022-09-10T17:11:41.783Z,100643.38
2022-09-10T17:14:08.235Z,100642.19
2022-09-10T17:16:37.484Z,100636.66
2022-09-10T17:19:07.082Z,100629.91
2022-09-10T17:21:36.810Z,100630.31
2022-09-10T17:24:04.090Z,100633.47
2022-09-10T17:26:31.339Z,100633.09
2022-09-10T17:28:59.396Z,100635.06
2022-09-10T17:31:27.659Z,100631.91
2022-09-10T17:33:55.516Z,100632.31
2022-09-10T17:36:22.294Z,100629.94
2022-09-10T17:38:48.946Z,100632.72
2022-09-10T17:41:15.326Z,100632.31
2022-09-10T17:43:42.820Z,100646.97
2022-09-10T17:46:14.809Z,100633.94
2022-09-10T17:48:44.577Z,100643.44
2022-09-10T17:51:15.342Z,100649.38
2022-09-10T17:53:42.119Z,100649.81
2022-09-10T17:56:09.403Z,100649.78
2022-09-10T17:58:35.726Z,100655.72
2022-09-10T18:01:04.440Z,100650.19
2022-09-10T18:03:31.631Z,100654.94
2022-09-10T18:06:04.898Z,100658.84
2022-09-10T18:08:32.262Z,100657.25
2022-09-10T18:11:06.240Z,100655.28
2022-09-10T18:13:34.107Z,100665.19
2022-09-10T18:16:11.243Z,100662.41
2022-09-10T18:18:38.262Z,100660.03
2022-09-10T18:21:18.055Z,100659.25
2022-09-10T18:23:44.557Z,100658.44
2022-09-10T18:26:15.141Z,100657.66
2022-09-10T18:28:42.496Z,100660.03
2022-09-10T18:31:09.742Z,100663.13
2022-09-10T18:33:38.377Z,100666.34
2022-09-10T18:36:24.177Z,100666.28
2022-09-10T18:38:50.548Z,100674.19
2022-09-10T18:41:21.943Z,100670.25
2022-09-10T18:43:49.173Z,100672.59
2022-09-10T18:46:16.023Z,100672.19
2022-09-10T18:48:42.796Z,100668.22
2022-09-10T18:51:11.583Z,100663.13
2022-09-10T18:53:38.524Z,100661.94
2022-09-10T18:56:24.255Z,100658.81
2022-09-10T18:58:50.868Z,100663.13
2022-09-10T19:01:17.655Z,100653.69
2022-09-10T19:03:45.385Z,100656.06
2022-09-10T19:06:16.004Z,100657.69
2022-09-10T19:08:50.066Z,100656.47
2022-09-10T19:11:17.517Z,100652.16
2022-09-10T19:13:48.232Z,100658.91
2022-09-10T19:16:15.028Z,100657.72
2022-09-10T19:18:42.090Z,100659.69
2022-09-10T19:21:08.398Z,100649.78
2022-09-10T19:23:35.317Z,100649.78
2022-09-10T19:26:01.922Z,100649.03
2022-09-10T19:28:33.492Z,100650.97
2022-09-10T19:31:04.931Z,100647.03
2022-09-10T19:33:32.010Z,100649.00
2022-09-10T19:36:02.970Z,100653.75
2022-09-10T19:38:37.496Z,100644.66
2022-09-10T19:41:12.198Z,100642.28
2022-09-10T19:43:40.204Z,100634.75
2022-09-10T19:46:08.171Z,100637.53
2022-09-10T19:48:34.516Z,100645.84
2022-09-10T19:51:01.936Z,100639.13
2022-09-10T19:53:28.401Z,100645.84
2022-09-10T19:55:54.747Z,100641.91
2022-09-10T19:58:21.217Z,100641.88
2022-09-10T20:00:47.601Z,100641.84
2022-09-10T20:03:14.570Z,100643.44
2022-09-10T20:05:42.581Z,100644.63
2022-09-10T20:08:09.765Z,100645.00
2022-09-10T20:10:37.135Z,100647.38
2022-09-10T20:13:03.478Z,100644.97
2022-09-10T20:15:29.778Z,100653.63
2022-09-10T20:17:56.643Z,100650.06
2022-09-10T20:20:22.959Z,100655.63
2022-09-10T20:22:49.282Z,100656.41
2022-09-10T20:25:15.595Z,100652.03
2022-09-10T20:27:41.916Z,100653.25
2022-09-10T20:30:11.765Z,100649.66
2022-09-10T20:32:38.112Z,100655.16
2022-09-10T20:35:05.547Z,100659.09
2022-09-10T20:37:31.830Z,100659.03
2022-09-10T20:39:58.438Z,100669.75
2022-09-10T20:42:27.722Z,100667.66
2022-09-10T20:44:55.395Z,100665.28
2022-09-10T20:47:24.120Z,100663.31
2022-09-10T20:49:50.522Z,100670.03
2022-09-10T20:52:16.904Z,100666.50
2022-09-10T20:54:43.198Z,100672.00
2022-09-10T20:57:09.561Z,100680.31
2022-09-10T20:59:36.782Z,100675.94
2022-09-10T21:02:03.246Z,100674.38
2022-09-10T21:04:29.696Z,100692.53
2022-09-10T21:06:55.981Z,100685.44
2022-09-10T21:09:22.266Z,100686.63
2022-09-10T21:11:49.193Z,100697.28
2022-09-10T21:14:15.485Z,100701.63
2022-09-10T21:16:43.149Z,100704.78
2022-09-10T21:19:10.771Z,100704.34
2022-09-10T21:21:39.285Z,100704.34
2022-09-10T21:24:13.228Z,100707.53
2022-09-10T21:26:40.469Z,100712.66
2022-09-10T21:29:08.119Z,100712.22
2022-09-10T21:31:36.182Z,100713.41
2022-09-10T21:34:03.715Z,100712.63
2022-09-10T21:36:30.876Z,100723.66
2022-09-10T21:38:59.222Z,100716.53
2022-09-10T21:41:33.370Z,100723.19
2022-09-10T21:44:00.893Z,100726.31
2022-09-10T21:46:27.502Z,100718.81
2022-09-10T21:48:53.844Z,100726.25
2022-09-10T21:51:20.638Z,100731.75
2022-09-10T21:53:47.589Z,100729.38
2022-09-10T21:56:17.301Z,100727.44
2022-09-10T21:58:44.735Z,100727.81
2022-09-10T22:01:11.901Z,100725.00
2022-09-10T22:03:38.889Z,100719.38
2022-09-10T22:06:09.553Z,100722.88
2022-09-10T22:08:36.710Z,100720.84
2022-09-10T22:11:10.392Z,100720.09
2022-09-10T22:13:37.915Z,100722.50
2022-09-10T22:16:07.241Z,100721.25
2022-09-10T22:18:34.125Z,100716.63
2022-09-10T22:21:00.794Z,100719.22
2022-09-10T22:23:31.366Z,100705.72
2022-09-10T22:26:03.633Z,100717.75
2022-09-10T22:28:34.619Z,100714.84
2022-09-10T22:31:06.173Z,100718.03
2022-09-10T22:33:33.007Z,100710.44
2022-09-10T22:36:09.476Z,100715.25
2022-09-10T22:38:35.841Z,100723.50
2022-09-10T22:41:03.257Z,100712.53
2022-09-10T22:43:29.806Z,100713.31
2022-09-10T22:45:56.154Z,100710.56
2022-09-10T22:48:22.465Z,100709.00
2022-09-10T22:50:48.767Z,100714.09
2022-09-10T22:53:16.301Z,100711.50
2022-09-10T22:55:42.608Z,100712.78
2022-09-10T22:58:09.953Z,100715.34
2022-09-10T23:00:36.538Z,100720.13
2022-09-10T23:03:04.685Z,100720.13
2022-09-10T23:05:31.294Z,100721.41
2022-09-10T23:07:57.661Z,100727.44
2022-09-10T23:10:24.248Z,100727.84
2022-09-10T23:12:50.586Z,100731.84
2022-09-10T23:15:16.913Z,100738.63
2022-09-10T23:17:43.198Z,100732.31
2022-09-10T23:20:09.833Z,100729.59
2022-09-10T23:22:36.123Z,100735.94
2022-09-10T23:25:02.410Z,100741.88
2022-09-10T23:27:28.910Z,100734.00
2022-09-10T23:29:55.853Z,100736.38
2022-09-10T23:32:22.364Z,100732.44
2022-09-10T23:34:50.654Z,100743.03
2022-09-10T23:37:17.416Z,100740.97
2022-09-10T23:39:43.759Z,100742.56
2022-09-10T23:42:10.082Z,100738.97
2022-09-10T23:44:36.610Z,100731.75
2022-09-10T23:47:02.944Z,100746.38
2022-09-10T23:49:29.310Z,100735.97
2022-09-10T23:51:55.625Z,100733.09
2022-09-10T23:54:22.117Z,100736.63
2022-09-10T23:56:48.409Z,100745.69
2022-09-10T23:59:15.312Z,100745.59
